sensor_id;sensor_type;location;lat;lon;timestamp;temperature;humidity
22173;DHT22;11252;50.596;17.648;2024-03-17T00:02:13;7.60;92.20
22173;DHT22;11252;50.596;17.648;2024-03-17T00:04:41;7.60;92.20
22173;DHT22;11252;50.596;17.648;2024-03-17T00:07:13;7.60;92.20
22173;DHT22;11252;50.596;17.648;2024-03-17T00:09:39;7.60;92.20
22173;DHT22;11252;50.596;17.648;2024-03-17T00:12:07;7.60;92.20
22173;DHT22;11252;50.596;17.648;2024-03-17T00:14:34;7.60;92.20
22173;DHT22;11252;50.596;17.648;2024-03-17T00:17:01;7.60;92.20
22173;DHT22;11252;50.596;17.648;2024-03-17T00:19:28;7.50;92.20
22173;DHT22;11252;50.596;17.648;2024-03-17T00:21:54;7.50;92.20
22173;DHT22;11252;50.596;17.648;2024-03-17T00:24:20;7.40;92.20
22173;DHT22;11252;50.596;17.648;2024-03-17T00:26:47;7.40;92.20
22173;DHT22;11252;50.596;17.648;2024-03-17T00:29:13;7.40;92.20
22173;DHT22;11252;50.596;17.648;2024-03-17T00:31:41;7.40;92.20
22173;DHT22;11252;50.596;17.648;2024-03-17T00:34:07;7.30;92.20
22173;DHT22;11252;50.596;17.648;2024-03-17T00:36:33;7.30;92.20
22173;DHT22;11252;50.596;17.648;2024-03-17T00:38:59;7.30;92.20
22173;DHT22;11252;50.596;17.648;2024-03-17T00:41:26;7.10;92.20
22173;DHT22;11252;50.596;17.648;2024-03-17T00:43:55;7.10;92.20
22173;DHT22;11252;50.596;17.648;2024-03-17T00:46:22;7.00;92.20
22173;DHT22;11252;50.596;17.648;2024-03-17T00:48:49;6.90;92.20
22173;DHT22;11252;50.596;17.648;2024-03-17T00:51:16;6.90;92.20
22173;DHT22;11252;50.596;17.648;2024-03-17T00:53:42;6.80;92.20
22173;DHT22;11252;50.596;17.648;2024-03-17T00:56:11;6.80;92.20
22173;DHT22;11252;50.596;17.648;2024-03-17T00:58:37;6.70;92.20
22173;DHT22;11252;50.596;17.648;2024-03-17T01:01:04;6.70;92.20
22173;DHT22;11252;50.596;17.648;2024-03-17T01:03:30;6.70;92.20
22173;DHT22;11252;50.596;17.648;2024-03-17T01:05:56;6.60;92.20
22173;DHT22;11252;50.596;17.648;2024-03-17T01:08:22;6.60;92.20
22173;DHT22;11252;50.596;17.648;2024-03-17T01:10:48;6.50;92.20
22173;DHT22;11252;50.596;17.648;2024-03-17T01:13:16;6.50;92.20
22173;DHT22;11252;50.596;17.648;2024-03-17T01:15:43;6.50;92.20
22173;DHT22;11252;50.596;17.648;2024-03-17T01:18:08;6.40;92.20
22173;DHT22;11252;50.596;17.648;2024-03-17T01:20:35;6.40;92.20
22173;DHT22;11252;50.596;17.648;2024-03-17T01:23:02;6.40;92.20
22173;DHT22;11252;50.596;17.648;2024-03-17T01:25:28;6.30;92.20
22173;DHT22;11252;50.596;17.648;2024-03-17T01:27:55;6.30;92.20
22173;DHT22;11252;50.596;17.648;2024-03-17T01:30:22;6.20;92.20
22173;DHT22;11252;50.596;17.648;2024-03-17T01:32:49;6.20;92.20
22173;DHT22;11252;50.596;17.648;2024-03-17T01:35:15;6.20;92.20
22173;DHT22;11252;50.596;17.648;2024-03-17T01:37:42;6.20;92.20
22173;DHT22;11252;50.596;17.648;2024-03-17T01:40:08;6.10;92.20
22173;DHT22;11252;50.596;17.648;2024-03-17T01:42:39;6.20;92.20
22173;DHT22;11252;50.596;17.648;2024-03-17T01:45:30;6.10;92.20
22173;DHT22;11252;50.596;17.648;2024-03-17T01:48:00;6.10;92.20
22173;DHT22;11252;50.596;17.648;2024-03-17T01:50:32;6.10;92.20
22173;DHT22;11252;50.596;17.648;2024-03-17T01:53:05;6.10;92.20
22173;DHT22;11252;50.596;17.648;2024-03-17T01:55:32;6.10;92.20
22173;DHT22;11252;50.596;17.648;2024-03-17T01:57:59;6.10;92.20
22173;DHT22;11252;50.596;17.648;2024-03-17T02:00:25;6.00;92.20
22173;DHT22;11252;50.596;17.648;2024-03-17T02:02:52;6.00;92.20
22173;DHT22;11252;50.596;17.648;2024-03-17T02:05:18;6.00;92.20
22173;DHT22;11252;50.596;17.648;2024-03-17T02:07:44;6.00;92.20
22173;DHT22;11252;50.596;17.648;2024-03-17T02:10:10;6.00;92.20
22173;DHT22;11252;50.596;17.648;2024-03-17T02:12:37;5.90;92.20
22173;DHT22;11252;50.596;17.648;2024-03-17T02:15:04;5.90;92.20
22173;DHT22;11252;50.596;17.648;2024-03-17T02:17:32;5.80;92.20
22173;DHT22;11252;50.596;17.648;2024-03-17T02:19:58;5.80;92.20
22173;DHT22;11252;50.596;17.648;2024-03-17T02:22:25;5.70;92.20
22173;DHT22;11252;50.596;17.648;2024-03-17T02:24:53;5.70;92.20
22173;DHT22;11252;50.596;17.648;2024-03-17T02:27:19;5.70;92.20
22173;DHT22;11252;50.596;17.648;2024-03-17T02:29:45;5.60;92.20
22173;DHT22;11252;50.596;17.648;2024-03-17T02:32:11;5.60;92.20
22173;DHT22;11252;50.596;17.648;2024-03-17T02:34:38;5.60;92.20
22173;DHT22;11252;50.596;17.648;2024-03-17T02:37:05;5.60;92.20
22173;DHT22;11252;50.596;17.648;2024-03-17T02:39:33;5.60;92.20
22173;DHT22;11252;50.596;17.648;2024-03-17T02:42:04;5.60;92.20
22173;DHT22;11252;50.596;17.648;2024-03-17T02:44:32;5.50;92.20
22173;DHT22;11252;50.596;17.648;2024-03-17T02:46:59;5.50;92.20
22173;DHT22;11252;50.596;17.648;2024-03-17T02:49:26;5.40;92.20
22173;DHT22;11252;50.596;17.648;2024-03-17T02:52:10;5.40;92.20
22173;DHT22;11252;50.596;17.648;2024-03-17T02:54:38;5.40;92.20
22173;DHT22;11252;50.596;17.648;2024-03-17T02:57:04;5.40;92.20
22173;DHT22;11252;50.596;17.648;2024-03-17T02:59:31;5.30;92.20
22173;DHT22;11252;50.596;17.648;2024-03-17T03:01:57;5.30;92.20
22173;DHT22;11252;50.596;17.648;2024-03-17T03:04:23;5.30;92.20
22173;DHT22;11252;50.596;17.648;2024-03-17T03:06:49;5.30;92.20
22173;DHT22;11252;50.596;17.648;2024-03-17T03:09:15;5.30;92.20
22173;DHT22;11252;50.596;17.648;2024-03-17T03:11:47;5.30;92.20
22173;DHT22;11252;50.596;17.648;2024-03-17T03:14:14;5.30;92.20
22173;DHT22;11252;50.596;17.648;2024-03-17T03:16:40;5.30;92.20
22173;DHT22;11252;50.596;17.648;2024-03-17T03:19:06;5.30;92.20
22173;DHT22;11252;50.596;17.648;2024-03-17T03:21:32;5.30;92.20
22173;DHT22;11252;50.596;17.648;2024-03-17T03:23:58;5.20;92.20
22173;DHT22;11252;50.596;17.648;2024-03-17T03:26:24;5.20;92.20
22173;DHT22;11252;50.596;17.648;2024-03-17T03:28:50;5.10;92.20
22173;DHT22;11252;50.596;17.648;2024-03-17T03:31:16;5.20;92.20
22173;DHT22;11252;50.596;17.648;2024-03-17T03:33:43;5.20;92.20
22173;DHT22;11252;50.596;17.648;2024-03-17T03:36:10;5.10;92.20
22173;DHT22;11252;50.596;17.648;2024-03-17T03:38:37;5.10;92.20
22173;DHT22;11252;50.596;17.648;2024-03-17T03:41:15;5.10;92.20
22173;DHT22;11252;50.596;17.648;2024-03-17T03:43:42;5.00;92.20
22173;DHT22;11252;50.596;17.648;2024-03-17T03:46:09;5.00;92.20
22173;DHT22;11252;50.596;17.648;2024-03-17T03:48:35;4.90;92.20
22173;DHT22;11252;50.596;17.648;2024-03-17T03:51:08;4.90;92.20
22173;DHT22;11252;50.596;17.648;2024-03-17T03:53:36;4.90;92.20
22173;DHT22;11252;50.596;17.648;2024-03-17T03:56:05;4.90;92.20
22173;DHT22;11252;50.596;17.648;2024-03-17T03:58:36;4.90;92.20
22173;DHT22;11252;50.596;17.648;2024-03-17T04:01:06;4.80;92.20
22173;DHT22;11252;50.596;17.648;2024-03-17T04:03:36;4.80;92.20
22173;DHT22;11252;50.596;17.648;2024-03-17T04:06:08;4.70;92.20
22173;DHT22;11252;50.596;17.648;2024-03-17T04:08:38;4.70;92.20
22173;DHT22;11252;50.596;17.648;2024-03-17T04:11:10;4.70;92.20
22173;DHT22;11252;50.596;17.648;2024-03-17T04:13:37;4.70;92.20
22173;DHT22;11252;50.596;17.648;2024-03-17T04:16:06;4.60;92.20
22173;DHT22;11252;50.596;17.648;2024-03-17T04:18:33;4.60;92.20
22173;DHT22;11252;50.596;17.648;2024-03-17T04:21:06;4.60;92.20
22173;DHT22;11252;50.596;17.648;2024-03-17T04:23:35;4.50;92.20
22173;DHT22;11252;50.596;17.648;2024-03-17T04:26:04;4.50;92.20
22173;DHT22;11252;50.596;17.648;2024-03-17T04:28:30;4.50;92.20
22173;DHT22;11252;50.596;17.648;2024-03-17T04:31:06;4.50;92.20
22173;DHT22;11252;50.596;17.648;2024-03-17T04:33:33;4.50;92.20
22173;DHT22;11252;50.596;17.648;2024-03-17T04:35:59;4.50;92.20
22173;DHT22;11252;50.596;17.648;2024-03-17T04:38:28;4.50;92.20
22173;DHT22;11252;50.596;17.648;2024-03-17T04:40:54;4.40;92.20
22173;DHT22;11252;50.596;17.648;2024-03-17T04:43:33;4.40;92.20
22173;DHT22;11252;50.596;17.648;2024-03-17T04:46:00;4.40;92.20
22173;DHT22;11252;50.596;17.648;2024-03-17T04:48:26;4.30;92.20
22173;DHT22;11252;50.596;17.648;2024-03-17T04:50:52;4.30;92.20
22173;DHT22;11252;50.596;17.648;2024-03-17T04:53:18;4.20;92.20
22173;DHT22;11252;50.596;17.648;2024-03-17T04:55:44;4.20;92.20
22173;DHT22;11252;50.596;17.648;2024-03-17T04:58:11;4.10;92.20
22173;DHT22;11252;50.596;17.648;2024-03-17T05:00:37;4.10;92.20
22173;DHT22;11252;50.596;17.648;2024-03-17T05:03:03;4.10;92.20
22173;DHT22;11252;50.596;17.648;2024-03-17T05:05:29;4.10;92.20
22173;DHT22;11252;50.596;17.648;2024-03-17T05:07:55;4.10;92.20
22173;DHT22;11252;50.596;17.648;2024-03-17T05:10:21;4.00;92.20
22173;DHT22;11252;50.596;17.648;2024-03-17T05:12:47;4.10;92.20
22173;DHT22;11252;50.596;17.648;2024-03-17T05:15:13;4.10;92.20
22173;DHT22;11252;50.596;17.648;2024-03-17T05:17:42;4.10;92.20
22173;DHT22;11252;50.596;17.648;2024-03-17T05:20:09;4.00;92.20
22173;DHT22;11252;50.596;17.648;2024-03-17T05:22:36;4.00;92.20
22173;DHT22;11252;50.596;17.648;2024-03-17T05:25:02;4.10;92.20
22173;DHT22;11252;50.596;17.648;2024-03-17T05:27:28;4.10;92.20
22173;DHT22;11252;50.596;17.648;2024-03-17T05:29:54;4.10;92.20
22173;DHT22;11252;50.596;17.648;2024-03-17T05:32:22;4.10;92.20
22173;DHT22;11252;50.596;17.648;2024-03-17T05:34:48;4.10;92.20
22173;DHT22;11252;50.596;17.648;2024-03-17T05:37:14;4.00;92.20
22173;DHT22;11252;50.596;17.648;2024-03-17T05:39:41;4.00;92.20
22173;DHT22;11252;50.596;17.648;2024-03-17T05:42:07;4.10;92.20
22173;DHT22;11252;50.596;17.648;2024-03-17T05:44:33;4.10;92.20
22173;DHT22;11252;50.596;17.648;2024-03-17T05:47:17;4.20;92.20
22173;DHT22;11252;50.596;17.648;2024-03-17T05:49:43;4.30;92.20
22173;DHT22;11252;50.596;17.648;2024-03-17T05:52:09;4.30;92.20
22173;DHT22;11252;50.596;17.648;2024-03-17T05:54:35;4.30;92.20
22173;DHT22;11252;50.596;17.648;2024-03-17T05:57:04;4.30;92.20
22173;DHT22;11252;50.596;17.648;2024-03-17T05:59:33;4.40;92.20
22173;DHT22;11252;50.596;17.648;2024-03-17T06:01:59;4.50;92.20
22173;DHT22;11252;50.596;17.648;2024-03-17T06:04:25;4.50;92.20
22173;DHT22;11252;50.596;17.648;2024-03-17T06:06:51;4.50;92.20
22173;DHT22;11252;50.596;17.648;2024-03-17T06:09:17;4.60;92.20
22173;DHT22;11252;50.596;17.648;2024-03-17T06:11:46;4.70;92.20
22173;DHT22;11252;50.596;17.648;2024-03-17T06:14:12;4.80;92.20
22173;DHT22;11252;50.596;17.648;2024-03-17T06:16:39;4.90;92.20
22173;DHT22;11252;50.596;17.648;2024-03-17T06:19:05;5.00;92.20
22173;DHT22;11252;50.596;17.648;2024-03-17T06:21:32;5.10;92.20
22173;DHT22;11252;50.596;17.648;2024-03-17T06:23:58;5.30;92.20
22173;DHT22;11252;50.596;17.648;2024-03-17T06:26:24;5.30;92.20
22173;DHT22;11252;50.596;17.648;2024-03-17T06:28:53;5.50;92.20
22173;DHT22;11252;50.596;17.648;2024-03-17T06:31:19;5.60;92.20
22173;DHT22;11252;50.596;17.648;2024-03-17T06:33:44;5.60;92.20
22173;DHT22;11252;50.596;17.648;2024-03-17T06:36:10;5.70;92.20
22173;DHT22;11252;50.596;17.648;2024-03-17T06:38:37;5.80;92.20
22173;DHT22;11252;50.596;17.648;2024-03-17T06:41:03;5.90;92.20
22173;DHT22;11252;50.596;17.648;2024-03-17T06:43:29;5.90;92.20
22173;DHT22;11252;50.596;17.648;2024-03-17T06:45:59;5.90;92.20
22173;DHT22;11252;50.596;17.648;2024-03-17T06:48:26;6.00;92.20
22173;DHT22;11252;50.596;17.648;2024-03-17T06:50:56;6.10;92.20
22173;DHT22;11252;50.596;17.648;2024-03-17T06:53:26;6.10;92.20
22173;DHT22;11252;50.596;17.648;2024-03-17T06:55:57;6.10;92.20
22173;DHT22;11252;50.596;17.648;2024-03-17T06:58:24;6.20;92.20
22173;DHT22;11252;50.596;17.648;2024-03-17T07:00:56;6.20;92.20
22173;DHT22;11252;50.596;17.648;2024-03-17T07:03:24;6.30;92.20
22173;DHT22;11252;50.596;17.648;2024-03-17T07:05:51;6.40;92.20
22173;DHT22;11252;50.596;17.648;2024-03-17T07:08:18;6.40;92.20
22173;DHT22;11252;50.596;17.648;2024-03-17T07:10:58;6.40;92.20
22173;DHT22;11252;50.596;17.648;2024-03-17T07:13:24;6.40;92.20
22173;DHT22;11252;50.596;17.648;2024-03-17T07:15:51;6.40;92.20
22173;DHT22;11252;50.596;17.648;2024-03-17T07:18:17;6.40;92.20
22173;DHT22;11252;50.596;17.648;2024-03-17T07:20:43;6.20;92.20
22173;DHT22;11252;50.596;17.648;2024-03-17T07:23:09;6.20;92.20
22173;DHT22;11252;50.596;17.648;2024-03-17T07:25:39;6.20;92.20
22173;DHT22;11252;50.596;17.648;2024-03-17T07:28:05;6.20;92.20
22173;DHT22;11252;50.596;17.648;2024-03-17T07:30:31;6.30;92.20
22173;DHT22;11252;50.596;17.648;2024-03-17T07:32:57;6.20;92.20
22173;DHT22;11252;50.596;17.648;2024-03-17T07:35:23;6.20;92.20
22173;DHT22;11252;50.596;17.648;2024-03-17T07:37:49;6.20;92.20
22173;DHT22;11252;50.596;17.648;2024-03-17T07:40:15;6.20;92.20
22173;DHT22;11252;50.596;17.648;2024-03-17T07:42:42;6.30;92.20
22173;DHT22;11252;50.596;17.648;2024-03-17T07:45:09;6.40;92.20
22173;DHT22;11252;50.596;17.648;2024-03-17T07:47:37;6.50;92.20
22173;DHT22;11252;50.596;17.648;2024-03-17T07:50:03;6.60;92.20
22173;DHT22;11252;50.596;17.648;2024-03-17T07:52:32;6.70;92.20
22173;DHT22;11252;50.596;17.648;2024-03-17T07:54:59;6.80;92.20
22173;DHT22;11252;50.596;17.648;2024-03-17T07:57:25;7.00;92.20
22173;DHT22;11252;50.596;17.648;2024-03-17T07:59:52;7.30;92.20
22173;DHT22;11252;50.596;17.648;2024-03-17T08:02:19;7.60;92.20
22173;DHT22;11252;50.596;17.648;2024-03-17T08:04:45;7.80;90.80
22173;DHT22;11252;50.596;17.648;2024-03-17T08:07:11;7.90;89.40
22173;DHT22;11252;50.596;17.648;2024-03-17T08:09:37;8.00;87.80
22173;DHT22;11252;50.596;17.648;2024-03-17T08:12:03;8.10;88.00
22173;DHT22;11252;50.596;17.648;2024-03-17T08:14:33;8.20;87.20
22173;DHT22;11252;50.596;17.648;2024-03-17T08:16:59;8.40;87.30
22173;DHT22;11252;50.596;17.648;2024-03-17T08:19:25;8.60;87.00
22173;DHT22;11252;50.596;17.648;2024-03-17T08:21:51;8.80;87.00
22173;DHT22;11252;50.596;17.648;2024-03-17T08:24:17;9.00;84.80
22173;DHT22;11252;50.596;17.648;2024-03-17T08:26:43;9.00;84.10
22173;DHT22;11252;50.596;17.648;2024-03-17T08:29:11;9.00;83.80
22173;DHT22;11252;50.596;17.648;2024-03-17T08:31:37;9.20;83.70
22173;DHT22;11252;50.596;17.648;2024-03-17T08:34:04;9.20;83.10
22173;DHT22;11252;50.596;17.648;2024-03-17T08:36:34;9.20;83.20
22173;DHT22;11252;50.596;17.648;2024-03-17T08:39:00;9.40;84.00
22173;DHT22;11252;50.596;17.648;2024-03-17T08:41:27;9.50;83.00
22173;DHT22;11252;50.596;17.648;2024-03-17T08:43:53;9.80;83.40
22173;DHT22;11252;50.596;17.648;2024-03-17T08:46:19;10.00;82.70
22173;DHT22;11252;50.596;17.648;2024-03-17T08:48:45;9.90;80.90
22173;DHT22;11252;50.596;17.648;2024-03-17T08:51:11;9.60;81.70
22173;DHT22;11252;50.596;17.648;2024-03-17T08:53:38;9.40;82.50
22173;DHT22;11252;50.596;17.648;2024-03-17T08:56:07;9.40;82.60
22173;DHT22;11252;50.596;17.648;2024-03-17T08:58:34;9.70;83.40
22173;DHT22;11252;50.596;17.648;2024-03-17T09:01:07;10.20;82.90
22173;DHT22;11252;50.596;17.648;2024-03-17T09:03:37;10.30;82.00
22173;DHT22;11252;50.596;17.648;2024-03-17T09:06:03;10.50;82.60
22173;DHT22;11252;50.596;17.648;2024-03-17T09:08:29;10.70;81.80
22173;DHT22;11252;50.596;17.648;2024-03-17T09:10:56;11.00;80.00
22173;DHT22;11252;50.596;17.648;2024-03-17T09:13:25;11.00;79.10
22173;DHT22;11252;50.596;17.648;2024-03-17T09:16:00;10.70;79.00
22173;DHT22;11252;50.596;17.648;2024-03-17T09:18:30;10.70;80.70
22173;DHT22;11252;50.596;17.648;2024-03-17T09:21:05;10.90;79.30
22173;DHT22;11252;50.596;17.648;2024-03-17T09:23:32;11.10;80.60
22173;DHT22;11252;50.596;17.648;2024-03-17T09:26:07;11.30;79.80
22173;DHT22;11252;50.596;17.648;2024-03-17T09:28:39;11.50;78.90
22173;DHT22;11252;50.596;17.648;2024-03-17T09:31:05;11.90;79.10
22173;DHT22;11252;50.596;17.648;2024-03-17T09:33:34;12.60;77.50
22173;DHT22;11252;50.596;17.648;2024-03-17T09:36:05;12.90;75.20
22173;DHT22;11252;50.596;17.648;2024-03-17T09:38:38;12.30;75.00
22173;DHT22;11252;50.596;17.648;2024-03-17T09:41:23;11.60;76.60
22173;DHT22;11252;50.596;17.648;2024-03-17T09:43:57;11.50;76.30
22173;DHT22;11252;50.596;17.648;2024-03-17T09:46:24;11.50;76.90
22173;DHT22;11252;50.596;17.648;2024-03-17T09:48:52;11.50;77.40
22173;DHT22;11252;50.596;17.648;2024-03-17T09:51:23;12.20;77.60
22173;DHT22;11252;50.596;17.648;2024-03-17T09:53:51;13.00;76.00
22173;DHT22;11252;50.596;17.648;2024-03-17T09:56:21;13.50;74.90
22173;DHT22;11252;50.596;17.648;2024-03-17T09:58:53;13.70;72.40
22173;DHT22;11252;50.596;17.648;2024-03-17T10:01:21;13.90;72.10
22173;DHT22;11252;50.596;17.648;2024-03-17T10:04:04;13.50;72.00
22173;DHT22;11252;50.596;17.648;2024-03-17T10:06:47;12.70;73.10
22173;DHT22;11252;50.596;17.648;2024-03-17T10:09:16;11.70;74.60
22173;DHT22;11252;50.596;17.648;2024-03-17T10:11:52;11.40;75.90
22173;DHT22;11252;50.596;17.648;2024-03-17T10:14:19;12.20;76.30
22173;DHT22;11252;50.596;17.648;2024-03-17T10:16:45;12.80;75.20
22173;DHT22;11252;50.596;17.648;2024-03-17T10:19:16;13.50;74.30
22173;DHT22;11252;50.596;17.648;2024-03-17T10:22:12;13.80;71.30
22173;DHT22;11252;50.596;17.648;2024-03-17T10:24:40;13.80;69.80
22173;DHT22;11252;50.596;17.648;2024-03-17T10:27:10;14.00;69.20
22173;DHT22;11252;50.596;17.648;2024-03-17T10:29:37;13.40;68.40
22173;DHT22;11252;50.596;17.648;2024-03-17T10:32:14;13.40;69.40
22173;DHT22;11252;50.596;17.648;2024-03-17T10:34:42;13.70;68.50
22173;DHT22;11252;50.596;17.648;2024-03-17T10:37:11;13.70;67.50
22173;DHT22;11252;50.596;17.648;2024-03-17T10:39:43;13.40;68.80
22173;DHT22;11252;50.596;17.648;2024-03-17T10:42:10;13.70;69.20
22173;DHT22;11252;50.596;17.648;2024-03-17T10:44:43;14.10;69.60
22173;DHT22;11252;50.596;17.648;2024-03-17T10:47:21;15.00;69.10
22173;DHT22;11252;50.596;17.648;2024-03-17T10:49:50;15.80;67.20
22173;DHT22;11252;50.596;17.648;2024-03-17T10:52:18;16.00;66.10
22173;DHT22;11252;50.596;17.648;2024-03-17T10:54:52;15.60;66.00
22173;DHT22;11252;50.596;17.648;2024-03-17T11:00:03;15.20;68.00
22173;DHT22;11252;50.596;17.648;2024-03-17T11:02:35;15.30;66.80
22173;DHT22;11252;50.596;17.648;2024-03-17T11:05:28;14.70;66.80
22173;DHT22;11252;50.596;17.648;2024-03-17T11:08:00;14.50;67.80
22173;DHT22;11252;50.596;17.648;2024-03-17T11:10:29;14.30;67.90
22173;DHT22;11252;50.596;17.648;2024-03-17T11:12:58;14.20;68.60
22173;DHT22;11252;50.596;17.648;2024-03-17T11:20:36;14.70;68.80
22173;DHT22;11252;50.596;17.648;2024-03-17T11:23:03;15.20;68.40
22173;DHT22;11252;50.596;17.648;2024-03-17T11:27:57;15.40;66.20
22173;DHT22;11252;50.596;17.648;2024-03-17T11:30:42;15.00;66.40
22173;DHT22;11252;50.596;17.648;2024-03-17T11:39:00;15.30;66.30
22173;DHT22;11252;50.596;17.648;2024-03-17T11:41:46;14.40;67.80
22173;DHT22;11252;50.596;17.648;2024-03-17T11:46:54;14.30;67.40
22173;DHT22;11252;50.596;17.648;2024-03-17T11:51:52;15.50;68.40
22173;DHT22;11252;50.596;17.648;2024-03-17T11:54:29;16.30;65.60
22173;DHT22;11252;50.596;17.648;2024-03-17T11:57:02;16.50;64.10
22173;DHT22;11252;50.596;17.648;2024-03-17T11:59:29;16.20;63.90
22173;DHT22;11252;50.596;17.648;2024-03-17T12:01:56;16.40;64.10
22173;DHT22;11252;50.596;17.648;2024-03-17T12:04:23;16.50;64.90
22173;DHT22;11252;50.596;17.648;2024-03-17T12:06:55;16.70;64.00
22173;DHT22;11252;50.596;17.648;2024-03-17T12:09:22;16.90;64.30
22173;DHT22;11252;50.596;17.648;2024-03-17T12:12:06;17.40;63.40
22173;DHT22;11252;50.596;17.648;2024-03-17T12:14:38;18.00;61.80
22173;DHT22;11252;50.596;17.648;2024-03-17T12:17:10;17.90;61.10
22173;DHT22;11252;50.596;17.648;2024-03-17T12:19:37;17.90;61.80
22173;DHT22;11252;50.596;17.648;2024-03-17T12:22:04;17.50;60.50
22173;DHT22;11252;50.596;17.648;2024-03-17T12:24:35;17.60;61.80
22173;DHT22;11252;50.596;17.648;2024-03-17T12:27:04;17.80;61.30
22173;DHT22;11252;50.596;17.648;2024-03-17T12:29:36;17.80;61.20
22173;DHT22;11252;50.596;17.648;2024-03-17T12:34:43;16.60;62.50
22173;DHT22;11252;50.596;17.648;2024-03-17T12:37:19;16.40;62.30
22173;DHT22;11252;50.596;17.648;2024-03-17T12:39:46;16.70;63.10
22173;DHT22;11252;50.596;17.648;2024-03-17T12:42:16;17.10;61.40
22173;DHT22;11252;50.596;17.648;2024-03-17T12:44:50;17.60;61.20
22173;DHT22;11252;50.596;17.648;2024-03-17T12:47:19;17.90;60.20
22173;DHT22;11252;50.596;17.648;2024-03-17T12:49:56;17.40;59.80
22173;DHT22;11252;50.596;17.648;2024-03-17T12:52:29;17.90;59.90
22173;DHT22;11252;50.596;17.648;2024-03-17T12:55:04;18.00;59.10
22173;DHT22;11252;50.596;17.648;2024-03-17T13:00:57;17.50;60.00
22173;DHT22;11252;50.596;17.648;2024-03-17T13:03:28;17.80;60.50
22173;DHT22;11252;50.596;17.648;2024-03-17T13:05:55;17.60;59.40
22173;DHT22;11252;50.596;17.648;2024-03-17T13:08:22;17.50;59.60
22173;DHT22;11252;50.596;17.648;2024-03-17T13:10:48;17.80;59.70
22173;DHT22;11252;50.596;17.648;2024-03-17T13:13:15;18.10;60.20
22173;DHT22;11252;50.596;17.648;2024-03-17T13:15:42;18.40;60.20
22173;DHT22;11252;50.596;17.648;2024-03-17T13:18:09;18.10;58.90
22173;DHT22;11252;50.596;17.648;2024-03-17T13:20:35;18.10;58.30
22173;DHT22;11252;50.596;17.648;2024-03-17T13:23:01;17.30;58.90
22173;DHT22;11252;50.596;17.648;2024-03-17T13:25:29;16.80;59.50
22173;DHT22;11252;50.596;17.648;2024-03-17T13:28:05;16.40;60.00
22173;DHT22;11252;50.596;17.648;2024-03-17T13:30:33;16.20;61.60
22173;DHT22;11252;50.596;17.648;2024-03-17T13:33:02;16.50;61.20
22173;DHT22;11252;50.596;17.648;2024-03-17T13:35:35;16.10;60.40
22173;DHT22;11252;50.596;17.648;2024-03-17T13:38:09;16.20;60.70
22173;DHT22;11252;50.596;17.648;2024-03-17T13:40:37;16.00;61.40
22173;DHT22;11252;50.596;17.648;2024-03-17T13:43:04;15.90;61.30
22173;DHT22;11252;50.596;17.648;2024-03-17T13:45:39;16.30;62.30
22173;DHT22;11252;50.596;17.648;2024-03-17T13:48:06;16.80;60.20
22173;DHT22;11252;50.596;17.648;2024-03-17T13:50:40;16.90;60.00
22173;DHT22;11252;50.596;17.648;2024-03-17T13:53:08;16.60;59.90
22173;DHT22;11252;50.596;17.648;2024-03-17T13:55:34;16.50;59.90
22173;DHT22;11252;50.596;17.648;2024-03-17T13:58:01;16.60;59.80
22173;DHT22;11252;50.596;17.648;2024-03-17T14:00:28;16.60;59.30
22173;DHT22;11252;50.596;17.648;2024-03-17T14:02:55;17.00;59.20
22173;DHT22;11252;50.596;17.648;2024-03-17T14:05:27;16.30;58.70
22173;DHT22;11252;50.596;17.648;2024-03-17T14:07:54;16.20;59.70
22173;DHT22;11252;50.596;17.648;2024-03-17T14:10:22;16.80;61.20
22173;DHT22;11252;50.596;17.648;2024-03-17T14:12:49;17.60;61.60
22173;DHT22;11252;50.596;17.648;2024-03-17T14:15:15;18.00;59.80
22173;DHT22;11252;50.596;17.648;2024-03-17T14:17:43;17.40;58.10
22173;DHT22;11252;50.596;17.648;2024-03-17T14:20:10;16.80;58.80
22173;DHT22;11252;50.596;17.648;2024-03-17T14:22:37;16.20;58.80
22173;DHT22;11252;50.596;17.648;2024-03-17T14:25:07;15.50;60.60
22173;DHT22;11252;50.596;17.648;2024-03-17T14:27:36;15.90;60.90
22173;DHT22;11252;50.596;17.648;2024-03-17T14:30:05;16.00;59.80
22173;DHT22;11252;50.596;17.648;2024-03-17T14:32:33;16.30;59.60
22173;DHT22;11252;50.596;17.648;2024-03-17T14:34:59;16.00;58.60
22173;DHT22;11252;50.596;17.648;2024-03-17T14:37:26;15.80;60.20
22173;DHT22;11252;50.596;17.648;2024-03-17T14:39:52;16.10;59.00
22173;DHT22;11252;50.596;17.648;2024-03-17T14:42:21;15.80;59.20
22173;DHT22;11252;50.596;17.648;2024-03-17T14:44:47;16.00;58.50
22173;DHT22;11252;50.596;17.648;2024-03-17T14:47:15;15.80;60.20
22173;DHT22;11252;50.596;17.648;2024-03-17T14:49:41;16.10;60.50
22173;DHT22;11252;50.596;17.648;2024-03-17T14:52:08;16.60;59.30
22173;DHT22;11252;50.596;17.648;2024-03-17T14:54:35;16.40;59.80
22173;DHT22;11252;50.596;17.648;2024-03-17T14:57:01;16.80;60.00
22173;DHT22;11252;50.596;17.648;2024-03-17T14:59:28;17.10;59.80
22173;DHT22;11252;50.596;17.648;2024-03-17T15:01:55;17.10;59.60
22173;DHT22;11252;50.596;17.648;2024-03-17T15:04:24;16.80;60.90
22173;DHT22;11252;50.596;17.648;2024-03-17T15:06:53;17.10;59.60
22173;DHT22;11252;50.596;17.648;2024-03-17T15:09:19;17.30;59.10
22173;DHT22;11252;50.596;17.648;2024-03-17T15:11:47;16.70;59.30
22173;DHT22;11252;50.596;17.648;2024-03-17T15:14:13;16.50;59.50
22173;DHT22;11252;50.596;17.648;2024-03-17T15:16:39;16.10;59.50
22173;DHT22;11252;50.596;17.648;2024-03-17T15:19:06;15.90;61.10
22173;DHT22;11252;50.596;17.648;2024-03-17T15:21:33;15.80;60.80
22173;DHT22;11252;50.596;17.648;2024-03-17T15:24:02;15.60;60.90
22173;DHT22;11252;50.596;17.648;2024-03-17T15:26:29;15.30;61.70
22173;DHT22;11252;50.596;17.648;2024-03-17T15:28:55;15.10;62.00
22173;DHT22;11252;50.596;17.648;2024-03-17T15:31:23;15.00;62.00
22173;DHT22;11252;50.596;17.648;2024-03-17T15:33:52;14.90;62.10
22173;DHT22;11252;50.596;17.648;2024-03-17T15:36:19;14.40;62.40
22173;DHT22;11252;50.596;17.648;2024-03-17T15:38:45;14.10;63.80
22173;DHT22;11252;50.596;17.648;2024-03-17T15:41:11;14.20;64.00
22173;DHT22;11252;50.596;17.648;2024-03-17T15:43:39;14.00;64.30
22173;DHT22;11252;50.596;17.648;2024-03-17T15:46:09;13.90;64.50
22173;DHT22;11252;50.596;17.648;2024-03-17T15:48:38;13.50;64.90
22173;DHT22;11252;50.596;17.648;2024-03-17T15:51:04;13.40;65.30
22173;DHT22;11252;50.596;17.648;2024-03-17T15:53:31;13.20;65.10
22173;DHT22;11252;50.596;17.648;2024-03-17T15:56:01;13.20;65.80
22173;DHT22;11252;50.596;17.648;2024-03-17T15:58:29;12.90;66.10
22173;DHT22;11252;50.596;17.648;2024-03-17T16:01:06;12.80;66.40